Time;durP1;ratioP1;P1;durP2;ratioP2;P2;SDS_P1;SDS_P2;PMS_P1;PMS_P2;Temp;Humidity;BMP_temperature;BMP_pressure;BME280_temperature;BME280_humidity;BME280_pressure;Samples;Min_cycle;Max_cycle;Signal;HPM_P1;HPM_P2
2023/06/25 00:01:31;;;;;;;9.30;6.00;;;22.20;1.00;;;;;;5046786;28;20215;-76
2023/06/25 00:03:56;;;;;;;7.67;5.70;;;22.20;1.00;;;;;;5045237;28;20259;-76
2023/06/25 00:06:22;;;;;;;8.20;6.10;;;22.20;1.00;;;;;;5047146;28;20338;-80
2023/06/25 00:08:48;;;;;;;7.37;5.83;;;22.20;1.00;;;;;;5047065;28;20264;-76
2023/06/25 00:11:14;;;;;;;10.03;5.73;;;22.20;1.00;;;;;;5048114;28;20766;-76
2023/06/25 00:13:40;;;;;;;7.90;5.77;;;22.20;1.00;;;;;;5047096;28;20438;-76
2023/06/25 00:16:06;;;;;;;7.30;5.40;;;22.20;1.00;;;;;;5048426;28;20214;-77
2023/06/25 00:18:33;;;;;;;8.10;5.97;;;22.20;1.00;;;;;;5048784;28;20264;-77
2023/06/25 00:20:58;;;;;;;6.23;5.20;;;22.20;1.00;;;;;;5039642;28;20505;-76
2023/06/25 00:23:24;;;;;;;8.50;5.97;;;22.30;1.00;;;;;;5044954;28;20447;-77
2023/06/25 00:25:50;;;;;;;7.40;5.30;;;22.30;1.00;;;;;;5041769;28;20245;-76
2023/06/25 00:28:15;;;;;;;7.10;5.70;;;22.40;1.00;;;;;;5048817;28;20188;-77
2023/06/25 00:30:41;;;;;;;7.90;5.20;;;22.40;1.00;;;;;;5048829;28;20220;-82
2023/06/25 00:33:06;;;;;;;7.40;5.60;;;22.50;1.00;;;;;;5043177;28;20188;-76
2023/06/25 00:35:50;;;;;;;7.20;5.10;;;22.50;1.00;;;;;;5047853;28;20204;-76
2023/06/25 00:38:16;;;;;;;7.80;5.77;;;22.60;1.00;;;;;;5045776;28;20188;-78
2023/06/25 00:40:42;;;;;;;6.57;5.40;;;22.60;1.00;;;;;;5047638;28;21261;-78
2023/06/25 00:43:08;;;;;;;6.90;5.57;;;22.70;1.00;;;;;;5045616;28;20443;-78
2023/06/25 00:45:34;;;;;;;10.20;5.90;;;22.70;1.00;;;;;;5048210;28;20184;-77
2023/06/25 00:48:00;;;;;;;8.13;6.03;;;22.60;1.00;;;;;;5047957;28;20184;-78
2023/06/25 00:50:25;;;;;;;10.37;5.90;;;22.60;1.00;;;;;;5046907;28;20465;-78
2023/06/25 00:52:52;;;;;;;7.93;4.87;;;22.60;1.00;;;;;;5047568;28;20662;-78
2023/06/25 00:55:19;;;;;;;7.20;5.60;;;22.60;1.00;;;;;;5047061;28;20200;-76
2023/06/25 00:57:44;;;;;;;6.53;5.40;;;22.60;1.00;;;;;;5048656;28;20439;-77
2023/06/25 01:00:14;;;;;;;8.77;5.40;;;22.60;1.00;;;;;;5048166;28;20557;-77
2023/06/25 01:02:46;;;;;;;6.63;5.10;;;22.60;1.00;;;;;;5047120;28;20650;-79
2023/06/25 01:05:28;;;;;;;6.30;5.00;;;24.40;1.00;;;;;;5046880;28;20866;-78
2023/06/25 01:07:58;;;;;;;6.90;5.40;;;22.60;1.00;;;;;;5048049;28;20525;-77
2023/06/25 01:10:24;;;;;;;8.30;5.27;;;22.60;1.00;;;;;;5044577;28;20456;-75
2023/06/25 01:12:50;;;;;;;8.53;5.57;;;22.50;1.00;;;;;;5041309;28;20959;-79
2023/06/25 01:15:15;;;;;;;6.93;5.40;;;22.50;1.00;;;;;;5046697;28;20783;-76
2023/06/25 01:17:41;;;;;;;6.43;5.00;;;22.50;1.00;;;;;;5034179;28;20241;-76
2023/06/25 01:20:13;;;;;;;7.93;5.40;;;22.50;1.00;;;;;;5047152;28;20207;-77
2023/06/25 01:22:42;;;;;;;6.33;5.00;;;22.50;1.00;;;;;;5048199;28;20185;-76
2023/06/25 01:25:09;;;;;;;6.67;5.40;;;22.60;1.00;;;;;;5045967;28;20539;-79
2023/06/25 01:27:35;;;;;;;7.00;5.53;;;22.40;1.00;;;;;;5047792;28;20442;-76
2023/06/25 01:30:03;;;;;;;8.33;5.20;;;22.40;1.00;;;;;;5047980;28;20956;-76
2023/06/25 01:32:29;;;;;;;9.10;5.17;;;22.30;1.00;;;;;;5047071;28;20443;-77
2023/06/25 01:34:54;;;;;;;9.00;5.40;;;22.30;1.00;;;;;;5039197;28;20474;-79
2023/06/25 01:37:20;;;;;;;8.83;5.70;;;22.20;1.00;;;;;;5047655;28;20280;-76
2023/06/25 01:39:49;;;;;;;7.57;5.93;;;22.20;1.00;;;;;;5048234;28;20180;-77
2023/06/25 01:42:15;;;;;;;6.40;5.03;;;22.10;1.00;;;;;;5039539;28;20434;-80
2023/06/25 01:44:40;;;;;;;6.23;5.20;;;22.10;1.00;;;;;;5047499;28;20813;-77
2023/06/25 01:47:06;;;;;;;7.90;5.20;;;22.00;1.00;;;;;;5047760;28;20662;-77
2023/06/25 01:49:31;;;;;;;5.70;4.50;;;22.00;1.00;;;;;;5048189;28;20256;-78
2023/06/25 01:51:57;;;;;;;7.60;6.03;;;22.00;1.00;;;;;;5046861;28;20582;-77
2023/06/25 01:54:22;;;;;;;7.93;5.53;;;21.90;1.00;;;;;;5045620;28;20204;-76
2023/06/25 01:56:48;;;;;;;6.63;5.07;;;21.90;1.00;;;;;;5046916;28;20212;-78
2023/06/25 01:59:13;;;;;;;8.87;4.90;;;21.80;1.00;;;;;;5046545;28;20790;-78
2023/06/25 02:01:40;;;;;;;7.17;5.37;;;22.20;1.00;;;;;;5047293;28;20208;-77
2023/06/25 02:04:05;;;;;;;6.40;5.20;;;21.80;1.00;;;;;;5051562;28;20271;-78
2023/06/25 02:06:31;;;;;;;11.20;5.20;;;21.80;1.00;;;;;;5051021;28;20550;-76
2023/06/25 02:08:56;;;;;;;6.90;5.50;;;21.70;1.00;;;;;;5051331;28;20172;-78
2023/06/25 02:11:22;;;;;;;6.53;5.30;;;21.70;1.00;;;;;;5047974;28;20217;-77
2023/06/25 02:13:47;;;;;;;7.53;5.40;;;21.70;1.00;;;;;;5047868;28;20192;-77
2023/06/25 02:16:13;;;;;;;7.73;5.10;;;21.70;1.00;;;;;;5047201;28;20185;-78
2023/06/25 02:18:40;;;;;;;7.57;5.30;;;21.70;1.00;;;;;;5042309;28;20176;-80
2023/06/25 02:21:05;;;;;;;7.60;6.20;;;21.60;1.00;;;;;;5049813;28;20193;-77
2023/06/25 02:23:31;;;;;;;7.63;5.53;;;22.90;1.00;;;;;;5043924;28;20442;-77
2023/06/25 02:25:57;;;;;;;13.70;5.53;;;21.60;1.00;;;;;;5051056;28;20592;-77
2023/06/25 02:28:22;;;;;;;7.20;4.90;;;21.60;1.00;;;;;;5049944;28;20192;-76
2023/06/25 02:30:48;;;;;;;6.40;4.70;;;21.60;1.00;;;;;;5049306;28;20283;-75
2023/06/25 02:33:13;;;;;;;7.93;5.27;;;21.60;1.00;;;;;;5051040;28;20192;-79
2023/06/25 02:35:40;;;;;;;7.37;5.40;;;21.70;1.00;;;;;;5050802;28;20238;-76
2023/06/25 02:38:06;;;;;;;7.90;5.10;;;21.70;1.00;;;;;;5049521;28;20200;-78
2023/06/25 02:40:31;;;;;;;6.40;4.87;;;22.40;1.00;;;;;;5044895;28;21052;-80
2023/06/25 02:42:57;;;;;;;6.90;5.10;;;21.80;1.00;;;;;;5038252;28;20591;-78
2023/06/25 02:45:23;;;;;;;6.20;5.13;;;21.80;1.00;;;;;;5046109;28;20272;-77
2023/06/25 02:47:49;;;;;;;8.23;5.03;;;22.00;1.00;;;;;;5045549;28;20184;-77
2023/06/25 02:50:15;;;;;;;6.57;4.77;;;22.10;1.00;;;;;;5049629;28;20211;-77
2023/06/25 02:52:41;;;;;;;6.83;5.33;;;22.10;1.00;;;;;;5049903;28;20450;-77
2023/06/25 02:55:07;;;;;;;7.40;5.40;;;22.20;1.00;;;;;;5050017;28;20774;-78
2023/06/25 02:57:32;;;;;;;6.23;5.00;;;22.20;1.00;;;;;;5050733;28;20207;-81
2023/06/25 02:59:59;;;;;;;6.03;4.70;;;22.20;1.00;;;;;;5049847;28;20181;-74
2023/06/25 03:02:24;;;;;;;7.30;4.83;;;22.20;1.00;;;;;;5049714;28;20775;-76
2023/06/25 03:04:50;;;;;;;5.77;4.73;;;22.20;1.00;;;;;;5050634;28;20522;-78
2023/06/25 03:07:16;;;;;;;7.13;5.07;;;22.20;1.00;;;;;;5050325;28;20295;-77
2023/06/25 03:09:42;;;;;;;7.33;5.67;;;22.20;1.00;;;;;;5050185;28;20211;-78
2023/06/25 03:12:08;;;;;;;7.00;5.20;;;22.20;1.00;;;;;;5048181;28;20239;-77
2023/06/25 03:14:34;;;;;;;7.20;5.67;;;22.20;1.00;;;;;;5045063;28;20565;-76
2023/06/25 03:17:00;;;;;;;7.27;5.30;;;22.30;1.00;;;;;;5050273;28;20530;-77
2023/06/25 03:19:26;;;;;;;10.50;4.90;;;22.20;1.00;;;;;;5049703;28;20185;-78
2023/06/25 03:21:51;;;;;;;8.33;5.50;;;22.20;1.00;;;;;;5048263;28;20201;-79
2023/06/25 03:24:17;;;;;;;7.10;5.10;;;22.20;1.00;;;;;;5042181;28;20200;-77
2023/06/25 03:26:43;;;;;;;7.70;5.13;;;22.20;1.00;;;;;;5050044;28;20181;-76
2023/06/25 03:29:08;;;;;;;8.13;4.90;;;22.20;1.00;;;;;;5049706;28;20238;-77
2023/06/25 03:31:34;;;;;;;8.00;5.30;;;22.20;1.00;;;;;;5040945;28;20204;-76
2023/06/25 03:33:59;;;;;;;10.53;5.13;;;22.30;1.00;;;;;;5035772;28;20177;-75
2023/06/25 03:36:25;;;;;;;7.00;5.17;;;22.20;1.00;;;;;;5041453;28;20611;-77
2023/06/25 03:38:50;;;;;;;6.90;5.07;;;22.20;1.00;;;;;;5050051;28;20726;-79
2023/06/25 03:41:16;;;;;;;9.10;5.80;;;22.20;1.00;;;;;;5044382;28;20694;-76
2023/06/25 03:43:41;;;;;;;8.27;4.80;;;22.20;1.00;;;;;;5048692;28;20542;-78
2023/06/25 03:46:07;;;;;;;7.83;5.57;;;22.10;1.00;;;;;;5049225;28;20551;-74
2023/06/25 03:48:33;;;;;;;9.10;5.93;;;22.10;1.00;;;;;;5050205;28;20188;-80
2023/06/25 03:50:58;;;;;;;11.43;5.90;;;22.10;1.00;;;;;;5048792;28;20196;-78
2023/06/25 03:53:25;;;;;;;7.13;5.50;;;21.90;1.00;;;;;;5041936;28;20185;-77
2023/06/25 03:55:51;;;;;;;7.20;5.60;;;21.60;1.00;;;;;;5047227;28;20701;-80
2023/06/25 03:58:16;;;;;;;11.13;6.37;;;21.30;1.00;;;;;;5045496;28;20440;-75
2023/06/25 04:00:42;;;;;;;9.30;5.97;;;21.10;1.00;;;;;;5047027;28;20203;-77
2023/06/25 04:03:07;;;;;;;14.67;6.90;;;21.10;1.00;;;;;;5038864;28;20185;-83
2023/06/25 04:05:33;;;;;;;8.93;6.10;;;20.70;1.00;;;;;;5047529;28;20553;-78
2023/06/25 04:07:59;;;;;;;8.40;6.47;;;20.70;1.00;;;;;;5048473;28;20265;-78
2023/06/25 04:10:25;;;;;;;11.53;8.93;;;20.60;1.00;;;;;;5048304;28;20346;-77
2023/06/25 04:12:50;;;;;;;8.20;6.40;;;20.50;1.00;;;;;;5045847;28;20573;-78
2023/06/25 04:15:16;;;;;;;7.80;6.17;;;20.40;1.00;;;;;;5047766;28;20477;-81
2023/06/25 04:17:41;;;;;;;8.97;6.77;;;20.40;1.00;;;;;;5046428;28;20203;-77
2023/06/25 04:20:07;;;;;;;8.80;7.20;;;20.10;1.00;;;;;;5048762;28;20267;-77
2023/06/25 04:22:33;;;;;;;11.80;7.50;;;20.30;1.00;;;;;;5047603;28;20196;-78
2023/06/25 04:24:59;;;;;;;9.87;8.13;;;20.10;1.00;;;;;;5048846;28;20280;-80
2023/06/25 04:27:25;;;;;;;11.17;8.07;;;20.10;1.00;;;;;;5047264;28;20219;-79
2023/06/25 04:29:50;;;;;;;10.60;7.83;;;20.00;1.00;;;;;;5048253;28;21012;-80
2023/06/25 04:32:16;;;;;;;10.60;8.97;;;20.00;1.00;;;;;;5048158;28;20215;-78
2023/06/25 04:34:42;;;;;;;10.67;7.93;;;20.10;1.00;;;;;;5046772;28;20290;-78
2023/06/25 04:37:07;;;;;;;11.57;8.70;;;20.10;1.00;;;;;;5048003;28;20937;-78
2023/06/25 04:39:33;;;;;;;14.23;8.87;;;20.20;1.00;;;;;;5042805;28;20184;-79
2023/06/25 04:41:58;;;;;;;10.27;8.23;;;20.20;1.00;;;;;;5043870;28;22243;-77
2023/06/25 04:44:25;;;;;;;13.30;8.60;;;20.30;1.00;;;;;;5046850;28;20603;-77
2023/06/25 04:46:50;;;;;;;13.03;8.20;;;20.30;1.00;;;;;;5044959;28;20265;-78
2023/06/25 04:49:16;;;;;;;10.87;8.10;;;20.40;1.00;;;;;;5048349;28;20451;-79
2023/06/25 04:51:45;;;;;;;12.23;8.13;;;20.30;1.00;;;;;;5044220;28;20205;-77
2023/06/25 04:54:11;;;;;;;12.70;9.17;;;20.30;1.00;;;;;;5045664;28;20216;-78
2023/06/25 04:56:36;;;;;;;11.60;8.83;;;20.40;1.00;;;;;;5047251;28;20635;-77
2023/06/25 04:59:02;;;;;;;13.80;9.23;;;20.40;1.00;;;;;;5041228;28;20642;-77
2023/06/25 05:01:27;;;;;;;11.03;9.20;;;20.40;1.00;;;;;;5044874;28;20269;-76
2023/06/25 05:03:53;;;;;;;13.20;9.00;;;20.50;1.00;;;;;;5040123;28;20184;-77
2023/06/25 05:06:18;;;;;;;14.00;9.60;;;20.50;1.00;;;;;;5045987;28;20255;-79
2023/06/25 05:08:44;;;;;;;12.30;8.67;;;20.50;1.00;;;;;;5046444;28;20172;-80
2023/06/25 05:11:10;;;;;;;11.40;9.07;;;20.60;1.00;;;;;;5047252;28;20283;-76
2023/06/25 05:13:35;;;;;;;13.70;8.80;;;20.60;1.00;;;;;;5046471;28;20326;-75
2023/06/25 05:16:01;;;;;;;11.03;8.90;;;20.70;1.00;;;;;;5045373;28;20216;-75
2023/06/25 05:18:27;;;;;;;14.27;8.67;;;20.80;1.00;;;;;;5046984;28;20524;-76
2023/06/25 05:20:52;;;;;;;11.07;8.70;;;20.90;1.00;;;;;;5040878;28;20543;-74
2023/06/25 05:23:19;;;;;;;11.10;8.40;;;21.00;1.00;;;;;;5041947;28;20192;-75
2023/06/25 05:25:44;;;;;;;13.23;9.30;;;21.10;1.00;;;;;;5046536;28;20180;-75
2023/06/25 05:28:09;;;;;;;12.90;8.47;;;21.20;1.00;;;;;;5043786;28;20442;-75
2023/06/25 05:30:36;;;;;;;10.03;8.40;;;21.20;1.00;;;;;;5039608;28;20232;-75
2023/06/25 05:33:02;;;;;;;12.80;8.23;;;21.30;1.00;;;;;;5037581;28;20250;-75
2023/06/25 05:35:28;;;;;;;11.53;8.57;;;21.30;1.00;;;;;;5045589;28;20470;-75
2023/06/25 05:37:54;;;;;;;11.50;7.93;;;21.30;1.00;;;;;;5049638;28;20185;-75
2023/06/25 05:40:20;;;;;;;11.53;8.03;;;21.50;1.00;;;;;;5049716;28;20567;-75
2023/06/25 05:42:45;;;;;;;10.03;8.10;;;21.50;1.00;;;;;;5043110;28;20180;-75
2023/06/25 05:45:11;;;;;;;9.53;8.00;;;21.60;1.00;;;;;;5049536;28;20289;-75
2023/06/25 05:47:36;;;;;;;10.80;8.30;;;21.60;1.00;;;;;;5043602;28;20259;-75
2023/06/25 05:50:03;;;;;;;9.93;7.90;;;21.80;1.00;;;;;;5050265;28;20246;-75
2023/06/25 05:52:28;;;;;;;12.77;8.00;;;21.80;1.00;;;;;;5050173;28;20176;-75
2023/06/25 05:54:54;;;;;;;9.80;8.07;;;21.90;1.00;;;;;;5050406;28;20519;-74
2023/06/25 05:57:19;;;;;;;15.43;8.53;;;21.90;1.00;;;;;;5050931;28;20651;-75
2023/06/25 05:59:45;;;;;;;9.87;8.23;;;;;;;;;;5050824;28;20184;-75
2023/06/25 06:02:11;;;;;;;12.60;8.00;;;22.10;1.00;;;;;;5049943;28;20187;-74
2023/06/25 06:04:37;;;;;;;10.07;7.50;;;22.20;1.00;;;;;;5049522;28;20196;-76
2023/06/25 06:07:03;;;;;;;9.00;7.17;;;22.30;1.00;;;;;;5043652;28;20192;-76
2023/06/25 06:09:29;;;;;;;10.90;7.57;;;22.40;1.00;;;;;;5049034;28;20188;-76
2023/06/25 06:11:55;;;;;;;9.70;6.93;;;22.50;1.00;;;;;;5047168;28;20234;-74
2023/06/25 06:14:20;;;;;;;8.63;6.57;;;22.60;1.00;;;;;;5050008;28;20471;-75
2023/06/25 06:16:46;;;;;;;8.07;5.87;;;22.80;1.00;;;;;;5046535;28;20205;-75
2023/06/25 06:19:11;;;;;;;8.83;6.00;;;23.00;1.00;;;;;;5050468;28;20274;-75
2023/06/25 06:21:37;;;;;;;7.57;6.17;;;23.10;1.00;;;;;;5049370;28;20203;-75
2023/06/25 06:24:03;;;;;;;6.83;5.53;;;23.30;1.00;;;;;;5048098;28;20177;-76
2023/06/25 06:26:28;;;;;;;8.80;6.30;;;23.40;1.00;;;;;;5049442;28;20188;-76
2023/06/25 06:28:54;;;;;;;10.80;6.03;;;23.60;1.00;;;;;;5048561;28;20667;-76
2023/06/25 06:31:20;;;;;;;8.23;5.83;;;23.70;1.00;;;;;;5048554;28;20196;-76
2023/06/25 06:33:46;;;;;;;7.67;5.73;;;23.80;1.00;;;;;;5049961;28;20199;-76
2023/06/25 06:36:12;;;;;;;7.80;5.70;;;24.10;1.00;;;;;;5050104;28;20980;-74
2023/06/25 06:38:38;;;;;;;7.03;5.37;;;24.10;1.00;;;;;;5043602;28;20680;-74
2023/06/25 06:41:03;;;;;;;7.63;6.10;;;24.10;1.00;;;;;;5044005;28;20506;-76
2023/06/25 06:43:30;;;;;;;7.50;5.87;;;24.20;1.00;;;;;;5040847;28;20200;-75
2023/06/25 06:45:55;;;;;;;7.87;5.80;;;24.40;1.00;;;;;;5048718;28;20181;-76
2023/06/25 06:48:21;;;;;;;9.20;6.30;;;24.50;1.00;;;;;;5044480;28;20440;-75
2023/06/25 06:50:46;;;;;;;7.70;5.80;;;24.60;1.00;;;;;;5047585;28;20266;-76
2023/06/25 06:53:12;;;;;;;8.67;5.90;;;24.70;1.00;;;;;;5048314;28;20762;-76
2023/06/25 06:55:37;;;;;;;8.23;6.17;;;24.80;1.00;;;;;;5049729;28;20211;-75
2023/06/25 06:58:03;;;;;;;8.70;6.70;;;24.70;1.00;;;;;;5043705;28;20184;-76
2023/06/25 07:00:28;;;;;;;9.23;5.80;;;24.90;1.00;;;;;;5048629;28;20200;-75
2023/06/25 07:02:56;;;;;;;7.00;5.77;;;25.00;1.00;;;;;;5049500;28;20671;-76
2023/06/25 07:05:23;;;;;;;6.50;5.37;;;25.10;1.00;;;;;;5047886;28;20272;-75
2023/06/25 07:07:48;;;;;;;10.60;6.87;;;25.20;1.00;;;;;;5045276;28;20886;-74
2023/06/25 07:10:14;;;;;;;7.37;6.10;;;25.40;1.00;;;;;;5048112;28;20532;-75
2023/06/25 07:12:39;;;;;;;8.10;6.30;;;25.50;1.00;;;;;;5049240;28;20196;-76
2023/06/25 07:15:05;;;;;;;6.90;5.57;;;25.70;1.00;;;;;;5050018;28;20201;-76
2023/06/25 07:17:31;;;;;;;8.60;6.43;;;25.80;1.00;;;;;;5048098;28;20192;-76
2023/06/25 07:19:57;;;;;;;10.50;6.53;;;26.00;1.00;;;;;;5038105;28;20505;-75
2023/06/25 07:22:22;;;;;;;9.33;6.30;;;26.00;1.00;;;;;;5039475;28;20254;-76
2023/06/25 07:24:48;;;;;;;7.40;5.90;;;26.20;1.00;;;;;;5048995;28;20239;-76
2023/06/25 07:27:13;;;;;;;8.80;6.80;;;26.20;1.00;;;;;;5049889;28;20602;-76
2023/06/25 07:29:39;;;;;;;7.60;5.83;;;26.30;1.00;;;;;;5047431;28;20189;-75
2023/06/25 07:32:05;;;;;;;7.13;5.80;;;26.50;1.00;;;;;;5048486;28;20205;-77
2023/06/25 07:34:30;;;;;;;12.40;6.50;;;26.50;1.00;;;;;;5049644;28;20228;-76
2023/06/25 07:36:56;;;;;;;8.37;6.60;;;26.60;1.00;;;;;;5047817;28;20906;-75
2023/06/25 07:39:26;;;;;;;8.73;6.60;;;26.60;1.00;;;;;;5042814;28;20740;-74
2023/06/25 07:41:55;;;;;;;9.70;6.60;;;26.80;1.00;;;;;;5042632;28;20203;-75
2023/06/25 07:44:21;;;;;;;9.73;6.20;;;27.10;1.00;;;;;;5050658;28;20259;-73
2023/06/25 07:46:47;;;;;;;7.80;5.80;;;27.30;1.00;;;;;;5050895;28;20188;-75
2023/06/25 07:49:13;;;;;;;8.47;6.60;;;27.60;1.00;;;;;;5048157;28;20663;-75
2023/06/25 07:51:38;;;;;;;9.80;6.67;;;27.90;1.00;;;;;;5045706;28;20212;-75
2023/06/25 07:54:04;;;;;;;9.30;6.33;;;27.90;1.00;;;;;;5046403;28;20188;-75
2023/06/25 07:56:29;;;;;;;8.67;6.40;;;28.10;1.00;;;;;;5048100;28;20208;-76
2023/06/25 07:58:55;;;;;;;10.57;7.20;;;28.10;1.00;;;;;;5047986;28;20717;-74
2023/06/25 08:01:20;;;;;;;12.80;7.10;;;27.90;1.00;;;;;;5044372;28;20283;-75
2023/06/25 08:03:46;;;;;;;7.90;6.40;;;27.70;1.00;;;;;;5048603;28;20279;-75
2023/06/25 08:06:12;;;;;;;8.30;6.80;;;28.00;1.00;;;;;;5046081;28;20185;-74
2023/06/25 08:08:37;;;;;;;8.70;6.57;;;28.00;1.00;;;;;;5036706;28;20601;-74
2023/06/25 08:11:03;;;;;;;7.70;6.60;;;28.20;1.00;;;;;;5045232;28;20698;-75
2023/06/25 08:13:29;;;;;;;8.37;6.57;;;28.50;1.00;;;;;;5047799;28;20212;-74
2023/06/25 08:15:54;;;;;;;6.90;6.00;;;28.80;1.00;;;;;;5047159;28;20211;-74
2023/06/25 08:18:20;;;;;;;8.67;6.97;;;29.00;1.00;;;;;;5049768;28;20181;-75
2023/06/25 08:20:46;;;;;;;10.20;7.03;;;29.00;1.00;;;;;;5044459;28;20215;-76
2023/06/25 08:23:12;;;;;;;9.67;6.83;;;29.20;1.00;;;;;;5046474;28;20288;-74
2023/06/25 08:25:38;;;;;;;7.70;6.33;;;29.60;1.00;;;;;;5046607;28;20219;-75
2023/06/25 08:28:03;;;;;;;12.97;6.83;;;29.70;1.00;;;;;;5048983;28;20177;-75
2023/06/25 08:30:29;;;;;;;7.70;6.27;;;29.90;1.00;;;;;;5047420;28;20212;-74
2023/06/25 08:32:55;;;;;;;7.43;6.13;;;30.10;1.00;;;;;;5047786;28;20185;-75
2023/06/25 08:35:21;;;;;;;7.93;6.15;;;30.20;1.00;;;;;;5047307;28;20216;-75
2023/06/25 08:37:46;;;;;;;6.30;5.57;;;30.50;1.00;;;;;;5046844;28;20547;-75
2023/06/25 08:40:12;;;;;;;8.85;6.55;;;30.90;1.00;;;;;;5045173;28;20415;-76
2023/06/25 08:42:41;;;;;;;12.32;5.70;;;31.00;1.00;;;;;;5044723;28;20192;-75
2023/06/25 08:45:07;;;;;;;8.52;6.80;;;31.00;1.00;;;;;;5040865;28;20552;-75
2023/06/25 08:47:39;;;;;;;8.07;6.53;;;31.10;1.00;;;;;;5042798;28;20718;-74
2023/06/25 08:50:07;;;;;;;7.40;6.30;;;31.60;1.00;;;;;;5044098;28;20262;-74
2023/06/25 08:52:33;;;;;;;8.98;6.57;;;31.60;1.00;;;;;;5053850;28;20204;-75
2023/06/25 08:54:59;;;;;;;7.78;6.13;;;31.80;1.00;;;;;;5050147;28;20231;-73
2023/06/25 08:57:25;;;;;;;7.88;5.88;;;31.70;1.00;;;;;;5051922;28;20185;-73
2023/06/25 08:59:51;;;;;;;8.23;6.00;;;31.70;1.00;;;;;;5048829;28;20176;-75
2023/06/25 09:02:18;;;;;;;7.63;6.15;;;31.70;1.00;;;;;;5043455;28;20184;-75
2023/06/25 09:04:46;;;;;;;7.25;6.20;;;32.00;1.00;;;;;;5048508;28;20267;-75
2023/06/25 09:07:19;;;;;;;7.80;5.88;;;32.20;1.00;;;;;;5048657;28;20284;-75
2023/06/25 09:09:51;;;;;;;7.72;6.40;;;32.00;1.00;;;;;;5048117;28;20185;-75
2023/06/25 09:12:22;;;;;;;6.97;6.03;;;32.40;1.00;;;;;;5048062;28;20563;-76
2023/06/25 09:14:48;;;;;;;7.53;5.65;;;;;;;;;;5048132;28;20201;-76
2023/06/25 09:17:19;;;;;;;8.82;6.43;;;34.10;1.00;;;;;;5048455;28;20183;-76
2023/06/25 09:19:44;;;;;;;7.47;6.07;;;35.00;1.00;;;;;;5050450;28;20288;-76
2023/06/25 09:22:10;;;;;;;6.53;5.63;;;36.00;1.00;;;;;;5048211;28;20738;-76
2023/06/25 09:24:42;;;;;;;7.18;5.78;;;36.50;1.00;;;;;;5044502;28;20184;-76
2023/06/25 09:27:10;;;;;;;7.60;5.80;;;37.20;1.00;;;;;;5046691;28;20184;-76
2023/06/25 09:29:36;;;;;;;6.80;5.43;;;37.50;1.00;;;;;;5046235;28;20177;-77
2023/06/25 09:32:12;;;;;;;6.75;5.43;;;38.10;1.00;;;;;;5047736;28;20251;-76
2023/06/25 09:34:40;;;;;;;5.97;5.32;;;38.80;1.00;;;;;;5047074;28;20265;-77
2023/06/25 09:37:06;;;;;;;9.23;6.45;;;39.10;1.00;;;;;;5037712;28;20618;-77
2023/06/25 09:39:31;;;;;;;7.70;5.93;;;39.00;1.00;;;;;;5046635;28;20264;-76
2023/06/25 09:42:00;;;;;;;5.97;4.72;;;38.70;1.00;;;;;;5043746;28;20207;-76
2023/06/25 09:44:26;;;;;;;6.28;5.28;;;39.20;1.00;;;;;;5043939;28;20200;-77
2023/06/25 09:47:04;;;;;;;5.40;4.65;;;39.80;1.00;;;;;;5033702;28;20671;-76
2023/06/25 09:49:31;;;;;;;5.65;4.90;;;40.10;1.00;;;;;;5043303;28;20212;-76
2023/06/25 09:51:57;;;;;;;5.10;4.40;;;40.80;1.00;;;;;;5043564;28;20639;-77
2023/06/25 09:54:24;;;;;;;5.65;4.93;;;41.20;1.00;;;;;;5044998;28;20213;-76
2023/06/25 09:56:50;;;;;;;5.60;4.90;;;41.10;1.00;;;;;;5045865;28;20669;-77
2023/06/25 09:59:17;;;;;;;6.30;4.95;;;40.70;1.00;;;;;;5047048;28;20185;-77
2023/06/25 10:01:42;;;;;;;5.47;4.53;;;41.20;1.00;;;;;;5041480;28;20198;-77
2023/06/25 10:04:09;;;;;;;7.28;4.68;;;41.70;1.00;;;;;;5033823;28;20186;-77
2023/06/25 10:06:36;;;;;;;5.90;4.80;;;41.80;1.00;;;;;;5039717;28;20185;-76
2023/06/25 10:09:05;;;;;;;5.60;4.70;;;42.20;1.00;;;;;;5039204;28;20185;-77
2023/06/25 10:11:31;;;;;;;6.75;4.80;;;42.80;1.00;;;;;;5043526;28;20232;-77
2023/06/25 10:13:58;;;;;;;7.70;4.90;;;43.00;1.00;;;;;;5046073;28;20209;-78
2023/06/25 10:16:29;;;;;;;5.40;4.50;;;42.60;1.00;;;;;;5046031;28;20197;-78
2023/06/25 10:18:56;;;;;;;5.90;4.80;;;42.60;1.00;;;;;;5041057;28;20260;-76
2023/06/25 10:21:24;;;;;;;8.43;4.53;;;42.70;1.00;;;;;;5037938;28;20207;-77
2023/06/25 10:23:56;;;;;;;6.80;4.72;;;42.40;1.00;;;;;;5047246;28;20176;-77
2023/06/25 10:26:26;;;;;;;7.57;4.90;;;42.30;1.00;;;;;;5045936;28;20242;-78
2023/06/25 10:28:52;;;;;;;4.82;4.05;;;42.10;1.00;;;;;;5047290;28;20181;-78
2023/06/25 10:31:18;;;;;;;5.35;4.68;;;42.60;1.00;;;;;;5047084;28;20287;-78
2023/06/25 10:33:44;;;;;;;5.80;5.20;;;42.90;1.00;;;;;;5050197;28;20608;-77
2023/06/25 10:36:10;;;;;;;5.70;4.57;;;43.20;1.00;;;;;;5050191;28;20234;-77
2023/06/25 10:38:36;;;;;;;5.57;4.35;;;43.80;1.00;;;;;;5048565;28;20647;-77
2023/06/25 10:41:01;;;;;;;5.50;4.18;;;44.40;1.00;;;;;;5042921;28;20196;-77
2023/06/25 10:43:27;;;;;;;5.03;4.53;;;44.60;1.00;;;;;;5049251;28;20264;-77
2023/06/25 10:45:54;;;;;;;7.57;4.63;;;44.10;1.00;;;;;;5041513;28;20200;-76
2023/06/25 10:48:20;;;;;;;5.82;4.80;;;44.40;1.00;;;;;;5048255;28;20267;-78
2023/06/25 10:50:46;;;;;;;5.55;4.65;;;44.80;1.00;;;;;;5047879;28;20686;-78
2023/06/25 10:53:14;;;;;;;5.80;4.95;;;45.00;1.00;;;;;;5049384;28;20184;-77
2023/06/25 10:55:48;;;;;;;5.93;4.90;;;44.90;1.00;;;;;;5047146;28;20287;-77
2023/06/25 10:58:18;;;;;;;5.00;4.50;;;44.20;1.00;;;;;;5050629;28;20172;-78
2023/06/25 11:00:45;;;;;;;4.65;4.22;;;43.90;1.00;;;;;;5047018;28;20207;-78
2023/06/25 11:03:12;;;;;;;4.90;4.40;;;44.00;1.00;;;;;;5038704;28;20188;-77
2023/06/25 11:05:42;;;;;;;4.93;4.40;;;44.10;1.00;;;;;;5048488;28;20172;-77
2023/06/25 11:08:07;;;;;;;4.75;4.15;;;44.10;1.00;;;;;;5047587;28;20226;-77
2023/06/25 11:10:35;;;;;;;5.85;4.97;;;44.70;1.00;;;;;;5046302;28;20224;-74
2023/06/25 11:13:02;;;;;;;5.40;4.50;;;44.90;1.00;;;;;;5048194;28;20180;-78
2023/06/25 11:15:32;;;;;;;5.07;4.03;;;45.50;1.00;;;;;;5049289;28;20250;-78
2023/06/25 11:17:57;;;;;;;6.13;4.93;;;45.90;1.00;;;;;;5050539;28;20276;-78
2023/06/25 11:20:24;;;;;;;4.82;4.30;;;46.40;1.00;;;;;;5041793;28;20283;-79
2023/06/25 11:22:50;;;;;;;6.28;4.53;;;46.90;1.00;;;;;;5038440;28;20192;-78
2023/06/25 11:25:16;;;;;;;5.30;4.32;;;46.90;1.00;;;;;;5048975;28;20496;-79
2023/06/25 11:27:42;;;;;;;5.10;4.60;;;46.20;1.00;;;;;;5044672;28;20176;-78
2023/06/25 11:30:09;;;;;;;6.13;4.45;;;44.80;1.00;;;;;;5041983;28;20925;-82
2023/06/25 11:32:39;;;;;;;5.65;4.80;;;44.40;1.00;;;;;;5048252;28;20180;-80
2023/06/25 11:35:12;;;;;;;5.07;4.55;;;44.20;1.00;;;;;;5046834;28;20200;-77
2023/06/25 11:37:48;;;;;;;6.68;5.13;;;43.50;1.00;;;;;;5045995;28;20177;-78
2023/06/25 11:40:25;;;;;;;6.18;4.43;;;43.20;1.00;;;;;;5045919;28;20291;-78
2023/06/25 11:42:51;;;;;;;7.45;5.40;;;44.40;1.00;;;;;;5046992;28;20184;-77
2023/06/25 11:45:18;;;;;;;5.47;4.25;;;45.60;1.00;;;;;;5042072;28;20459;-80
2023/06/25 11:47:50;;;;;;;5.20;4.70;;;46.30;1.00;;;;;;5047965;28;20272;-82
2023/06/25 11:50:17;;;;;;;4.97;4.47;;;46.00;1.00;;;;;;5038520;28;20745;-80
2023/06/25 11:52:44;;;;;;;4.93;4.32;;;45.80;1.00;;;;;;5047486;28;20184;-79
2023/06/25 11:55:11;;;;;;;5.25;4.38;;;45.80;1.00;;;;;;5044854;28;20215;-80
2023/06/25 11:57:37;;;;;;;4.90;4.20;;;46.30;1.00;;;;;;5051210;28;20187;-78
2023/06/25 12:00:03;;;;;;;5.55;4.50;;;45.50;1.00;;;;;;5051181;28;20181;-82
2023/06/25 12:02:28;;;;;;;5.90;4.60;;;45.40;1.00;;;;;;5049353;28;20546;-81
2023/06/25 12:04:54;;;;;;;4.47;4.07;;;44.30;1.00;;;;;;5041982;28;20263;-80
2023/06/25 12:07:20;;;;;;;5.32;4.70;;;45.00;1.00;;;;;;5050588;28;20186;-79
2023/06/25 12:09:45;;;;;;;5.05;4.15;;;45.30;1.00;;;;;;5049690;28;20234;-80
2023/06/25 12:12:11;;;;;;;5.30;4.57;;;45.40;1.00;;;;;;5049190;28;20216;-82
2023/06/25 12:14:36;;;;;;;6.72;4.45;;;45.70;1.00;;;;;;5053784;28;20218;-83
2023/06/25 12:17:02;;;;;;;5.95;4.45;;;45.30;1.00;;;;;;5052193;28;20180;-80
2023/06/25 12:19:28;;;;;;;5.90;4.15;;;45.20;1.00;;;;;;5052540;28;20181;-80
2023/06/25 12:21:56;;;;;;;5.55;4.47;;;45.20;1.00;;;;;;5047458;28;20207;-80
2023/06/25 12:24:22;;;;;;;4.55;4.00;;;46.00;1.00;;;;;;5044614;28;20214;-80
2023/06/25 12:26:48;;;;;;;6.22;4.50;;;45.60;1.00;;;;;;5049627;28;20176;-81
2023/06/25 12:29:13;;;;;;;5.10;4.30;;;46.00;1.00;;;;;;5051749;28;20187;-80
2023/06/25 12:31:39;;;;;;;5.65;4.05;;;45.90;1.00;;;;;;5047436;28;20316;-79
2023/06/25 12:34:04;;;;;;;6.03;4.28;;;44.30;1.00;;;;;;5047927;28;20571;-81
2023/06/25 12:36:30;;;;;;;5.70;4.82;;;44.60;1.00;;;;;;5039677;28;20288;-81
2023/06/25 12:38:57;;;;;;;5.78;4.50;;;45.10;1.00;;;;;;5046056;28;20227;-78
2023/06/25 12:41:25;;;;;;;4.97;4.47;;;45.40;1.00;;;;;;5049127;28;20633;-80
2023/06/25 12:43:51;;;;;;;5.43;4.90;;;45.10;1.00;;;;;;5046689;28;20187;-79
2023/06/25 12:46:16;;;;;;;6.25;5.22;;;44.40;1.00;;;;;;5047089;28;20304;-80
2023/06/25 12:48:43;;;;;;;6.75;4.80;;;44.00;1.00;;;;;;5048026;28;20193;-81
2023/06/25 12:51:08;;;;;;;5.70;5.10;;;44.30;1.00;;;;;;5048678;28;20282;-78